createdAt,value
2023-04-20T00:01:53.888Z,3.50
2023-04-20T00:04:20.460Z,4.20
2023-04-20T00:06:47.124Z,3.60
2023-04-20T00:09:13.833Z,4.00
2023-04-20T00:11:40.540Z,3.70
2023-04-20T00:14:07.613Z,3.28
2023-04-20T00:16:34.275Z,3.58
2023-04-20T00:19:01.093Z,3.85
2023-04-20T00:21:27.774Z,3.70
2023-04-20T00:23:54.300Z,3.90
2023-04-20T00:26:21.219Z,3.33
2023-04-20T00:28:51.648Z,3.30
2023-04-20T00:31:19.088Z,4.50
2023-04-20T00:33:47.610Z,3.40
2023-04-20T00:36:14.136Z,3.20
2023-04-20T00:38:40.935Z,2.47
2023-04-20T00:41:07.502Z,3.33
2023-04-20T00:43:34.148Z,3.80
2023-04-20T00:46:00.936Z,3.30
2023-04-20T00:48:27.703Z,4.05
2023-04-20T00:50:54.319Z,3.17
2023-04-20T00:53:20.940Z,3.83
2023-04-20T00:55:50.349Z,3.17
2023-04-20T00:58:16.869Z,3.60
2023-04-20T01:00:44.307Z,3.47
2023-04-20T01:03:11.002Z,2.65
2023-04-20T01:05:38.018Z,3.25
2023-04-20T01:08:04.771Z,4.03
2023-04-20T01:10:31.383Z,4.80
2023-04-20T01:12:58.544Z,3.58
2023-04-20T01:15:26.160Z,2.78
2023-04-20T01:17:53.634Z,3.53
2023-04-20T01:20:20.561Z,3.85
2023-04-20T01:22:48.296Z,3.08
2023-04-20T01:25:15.155Z,2.65
2023-04-20T01:27:41.766Z,3.72
2023-04-20T01:30:08.834Z,3.40
2023-04-20T01:32:37.326Z,2.67
2023-04-20T01:35:04.222Z,3.65
2023-04-20T01:37:30.809Z,3.28
2023-04-20T01:39:57.427Z,4.38
2023-04-20T01:42:24.090Z,3.55
2023-04-20T01:44:50.675Z,3.90
2023-04-20T01:47:18.346Z,3.38
2023-04-20T01:49:45.284Z,3.15
2023-04-20T01:52:11.845Z,3.55
2023-04-20T01:54:38.459Z,3.72
2023-04-20T01:57:05.045Z,3.03
2023-04-20T01:59:31.635Z,3.20
2023-04-20T02:02:01.424Z,2.63
2023-04-20T02:04:28.022Z,3.20
2023-04-20T02:06:54.559Z,3.05
2023-04-20T02:09:21.134Z,3.40
2023-04-20T02:11:49.448Z,2.75
2023-04-20T02:14:16.165Z,4.00
2023-04-20T02:16:42.811Z,3.15
2023-04-20T02:19:09.887Z,2.92
2023-04-20T02:21:36.481Z,3.40
2023-04-20T02:24:03.078Z,3.97
2023-04-20T02:26:29.622Z,3.22
2023-04-20T02:28:56.205Z,4.15
2023-04-20T02:31:22.840Z,3.47
2023-04-20T02:33:49.932Z,2.83
2023-04-20T02:36:16.614Z,3.30
2023-04-20T02:38:43.195Z,3.45
2023-04-20T02:41:09.728Z,3.28
2023-04-20T02:43:36.697Z,2.50
2023-04-20T02:46:04.554Z,2.58
2023-04-20T02:48:31.241Z,3.13
2023-04-20T02:50:58.908Z,2.40
2023-04-20T02:53:27.796Z,3.38
2023-04-20T02:56:10.879Z,3.53
2023-04-20T02:58:43.850Z,4.00
2023-04-20T03:01:36.568Z,2.60
2023-04-20T03:04:10.301Z,2.47
2023-04-20T03:06:43.727Z,3.63
2023-04-20T03:09:14.800Z,2.90
2023-04-20T03:11:54.362Z,2.90
2023-04-20T03:14:37.931Z,2.55
2023-04-20T03:17:04.526Z,1.92
2023-04-20T03:19:31.453Z,2.25
2023-04-20T03:21:58.113Z,3.03
2023-04-20T03:24:24.806Z,3.53
2023-04-20T03:26:52.952Z,3.17
2023-04-20T03:29:29.108Z,2.85
2023-04-20T03:31:56.025Z,2.80
2023-04-20T03:34:22.886Z,2.78
2023-04-20T03:36:49.773Z,2.45
2023-04-20T03:39:16.538Z,2.97
2023-04-20T03:41:43.230Z,2.97
2023-04-20T03:44:10.014Z,3.20
2023-04-20T03:46:36.957Z,3.67
2023-04-20T03:49:03.554Z,2.30
2023-04-20T03:51:30.160Z,2.25
2023-04-20T03:53:57.834Z,2.00
2023-04-20T03:56:26.746Z,2.65
2023-04-20T03:58:56.678Z,2.58
2023-04-20T04:01:25.779Z,3.08
2023-04-20T04:03:52.703Z,2.63
2023-04-20T04:06:19.831Z,3.58
2023-04-20T04:08:46.592Z,2.67
2023-04-20T04:11:13.211Z,2.30
2023-04-20T04:13:39.767Z,3.00
2023-04-20T04:16:08.792Z,3.30
2023-04-20T04:18:35.736Z,3.72
2023-04-20T04:21:10.237Z,2.83
2023-04-20T04:23:38.693Z,2.33
2023-04-20T04:26:12.736Z,3.15
2023-04-20T04:28:42.625Z,2.72
2023-04-20T04:33:45.719Z,2.05
2023-04-20T04:36:17.456Z,2.20
2023-04-20T04:38:44.751Z,3.17
2023-04-20T04:41:14.715Z,3.55
2023-04-20T04:43:43.106Z,2.13
2023-04-20T04:46:19.713Z,2.83
2023-04-20T04:48:46.793Z,3.50
2023-04-20T04:51:13.371Z,2.75
2023-04-20T04:53:39.963Z,1.95
2023-04-20T04:56:06.876Z,2.28
2023-04-20T04:58:33.570Z,3.28
2023-04-20T05:01:00.109Z,2.85
2023-04-20T05:03:26.887Z,2.60
2023-04-20T05:05:53.669Z,3.38
2023-04-20T05:08:21.342Z,4.28
2023-04-20T05:10:47.951Z,3.10
2023-04-20T05:13:14.519Z,4.13
2023-04-20T05:15:43.383Z,2.88
2023-04-20T05:18:10.522Z,3.15
2023-04-20T05:20:37.155Z,3.10
2023-04-20T05:23:04.331Z,2.60
2023-04-20T05:25:31.178Z,2.63
2023-04-20T05:27:57.669Z,2.13
2023-04-20T05:30:24.229Z,1.98
2023-04-20T05:32:52.317Z,2.20
2023-04-20T05:35:19.853Z,1.73
2023-04-20T05:37:47.686Z,2.53
2023-04-20T05:40:15.207Z,2.80
2023-04-20T05:42:41.756Z,2.72
2023-04-20T05:45:09.022Z,2.72
2023-04-20T05:47:35.716Z,2.78
2023-04-20T05:50:02.451Z,2.13
2023-04-20T05:52:28.951Z,2.70
2023-04-20T05:54:56.624Z,2.63
2023-04-20T05:57:24.529Z,2.85
2023-04-20T05:59:51.311Z,3.50
2023-04-20T06:02:17.985Z,2.20
2023-04-20T06:04:44.803Z,3.17
2023-04-20T06:07:11.541Z,3.45
2023-04-20T06:09:38.077Z,2.95
2023-04-20T06:12:04.790Z,2.78
2023-04-20T06:14:31.329Z,3.67
2023-04-20T06:16:57.904Z,2.75
2023-04-20T06:19:24.502Z,5.28
2023-04-20T06:21:51.083Z,2.67
2023-04-20T06:24:17.656Z,3.33
2023-04-20T06:26:44.215Z,2.47
2023-04-20T06:29:10.766Z,1.80
2023-04-20T06:31:37.398Z,2.42
2023-04-20T06:34:03.971Z,2.22
2023-04-20T06:36:31.220Z,3.35
2023-04-20T06:38:57.854Z,2.67
2023-04-20T06:41:24.403Z,1.70
2023-04-20T06:43:51.542Z,2.05
2023-04-20T06:46:18.188Z,2.17
2023-04-20T06:48:44.835Z,2.17
2023-04-20T06:51:13.031Z,1.80
2023-04-20T06:53:39.682Z,2.60
2023-04-20T06:56:06.571Z,2.10
2023-04-20T06:58:33.099Z,2.38
2023-04-20T07:00:59.743Z,2.53
2023-04-20T07:03:26.470Z,2.53
2023-04-20T07:05:53.110Z,2.22
2023-04-20T07:08:20.158Z,2.75
2023-04-20T07:10:46.741Z,2.88
2023-04-20T07:13:13.299Z,3.65
2023-04-20T07:15:39.891Z,3.25
2023-04-20T07:18:06.600Z,2.33
2023-04-20T07:20:33.255Z,1.98
2023-04-20T07:22:59.819Z,2.40
2023-04-20T07:25:26.392Z,3.75
2023-04-20T07:27:52.966Z,6.32
2023-04-20T07:30:19.569Z,6.20
2023-04-20T07:32:46.121Z,5.93
2023-04-20T07:35:12.665Z,11.82
2023-04-20T07:37:39.309Z,225.15
2023-04-20T07:40:06.869Z,121.82
2023-04-20T07:42:34.845Z,90.70
2023-04-20T07:45:01.479Z,59.08
2023-04-20T07:47:28.141Z,38.80
2023-04-20T07:49:54.904Z,28.08
2023-04-20T07:52:21.494Z,28.10
2023-04-20T07:54:48.110Z,23.88
2023-04-20T07:57:15.144Z,22.15
2023-04-20T07:59:41.774Z,22.73
2023-04-20T08:02:08.471Z,22.77
2023-04-20T08:04:38.732Z,27.45
2023-04-20T08:07:05.700Z,17.80
2023-04-20T08:09:32.358Z,20.77
2023-04-20T08:11:58.967Z,17.02
2023-04-20T08:14:25.700Z,16.42
2023-04-20T08:16:52.470Z,14.48
2023-04-20T08:19:19.105Z,17.42
2023-04-20T08:21:45.660Z,16.20
2023-04-20T08:24:13.301Z,17.38
2023-04-20T08:26:39.854Z,17.83
2023-04-20T08:29:06.525Z,17.88
2023-04-20T08:31:33.214Z,16.55
2023-04-20T08:33:59.808Z,15.60
2023-04-20T08:36:26.764Z,17.17
2023-04-20T08:39:09.884Z,15.93
2023-04-20T08:41:36.625Z,17.17
2023-04-20T08:44:03.410Z,15.90
2023-04-20T08:46:30.325Z,14.52
2023-04-20T08:48:57.150Z,13.52
2023-04-20T08:51:24.169Z,15.82
2023-04-20T08:53:50.750Z,15.88
2023-04-20T08:56:17.357Z,16.08
2023-04-20T08:58:43.969Z,13.07
2023-04-20T09:01:11.847Z,14.63
2023-04-20T09:03:41.138Z,14.50
2023-04-20T09:06:17.792Z,12.35
2023-04-20T09:08:45.089Z,13.10
2023-04-20T09:11:28.166Z,14.05
2023-04-20T09:14:06.633Z,15.05
2023-04-20T09:16:34.771Z,13.50
2023-04-20T09:19:01.436Z,13.18
2023-04-20T09:21:32.555Z,15.93
2023-04-20T09:24:03.892Z,12.10
2023-04-20T09:26:34.562Z,12.85
2023-04-20T09:29:01.908Z,14.23
2023-04-20T09:31:28.562Z,13.55
2023-04-20T09:33:58.180Z,12.93
2023-04-20T09:36:26.122Z,13.00
2023-04-20T09:39:13.485Z,11.73
2023-04-20T09:41:41.021Z,12.23
2023-04-20T09:44:08.001Z,14.07
2023-04-20T09:46:35.896Z,12.90
2023-04-20T09:49:04.876Z,12.10
2023-04-20T09:51:32.363Z,13.93
2023-04-20T09:53:59.797Z,11.60
2023-04-20T09:56:26.581Z,12.57
2023-04-20T09:58:53.790Z,13.10
2023-04-20T10:01:20.435Z,12.80
2023-04-20T10:03:47.323Z,14.63
2023-04-20T10:06:20.603Z,13.25
2023-04-20T10:08:48.899Z,11.02
2023-04-20T10:11:49.040Z,13.50
2023-04-20T10:14:23.918Z,12.95
2023-04-20T10:17:07.118Z,12.00
2023-04-20T10:19:38.905Z,12.20
2023-04-20T10:22:07.602Z,11.63
2023-04-20T10:24:34.204Z,11.88
2023-04-20T10:27:00.838Z,10.32
2023-04-20T10:29:27.744Z,12.15
2023-04-20T10:31:54.834Z,12.07
2023-04-20T10:34:34.489Z,11.60
2023-04-20T10:37:11.113Z,10.63
2023-04-20T10:39:44.133Z,10.88
2023-04-20T10:42:10.699Z,11.02
2023-04-20T10:44:50.461Z,10.55
2023-04-20T10:47:18.152Z,10.90
2023-04-20T10:49:45.174Z,11.82
2023-04-20T10:52:11.891Z,11.23
2023-04-20T10:54:39.185Z,9.98
2023-04-20T10:57:06.636Z,9.48
2023-04-20T10:59:37.262Z,11.75
2023-04-20T11:02:07.516Z,8.35
2023-04-20T11:04:34.534Z,7.93
2023-04-20T11:07:07.331Z,6.95
2023-04-20T11:09:34.588Z,7.13
2023-04-20T11:12:05.664Z,10.00
2023-04-20T11:14:38.181Z,8.65
2023-04-20T11:17:05.405Z,6.65
2023-04-20T11:19:33.100Z,7.00
2023-04-20T11:22:00.484Z,6.18
2023-04-20T11:24:31.483Z,5.65
2023-04-20T11:26:58.299Z,7.13
2023-04-20T11:29:27.962Z,7.60
2023-04-20T11:31:54.753Z,6.78
2023-04-20T11:34:22.376Z,5.10
2023-04-20T11:36:50.543Z,6.75
2023-04-20T11:39:27.068Z,6.95
2023-04-20T11:41:53.976Z,6.80
2023-04-20T11:44:21.251Z,5.70
2023-04-20T11:46:53.128Z,5.75
2023-04-20T11:49:23.632Z,6.75
2023-04-20T11:51:51.089Z,5.32
2023-04-20T11:54:19.159Z,7.30
2023-04-20T11:56:45.791Z,5.57
2023-04-20T11:59:13.938Z,5.38
2023-04-20T12:01:40.977Z,5.53
2023-04-20T12:04:07.931Z,5.15
2023-04-20T12:06:34.702Z,5.68
2023-04-20T12:09:01.478Z,5.90
2023-04-20T12:11:28.173Z,5.80
2023-04-20T12:13:54.856Z,6.05
2023-04-20T12:16:21.782Z,6.25
2023-04-20T12:18:48.499Z,5.18
2023-04-20T12:21:15.244Z,6.05
2023-04-20T12:23:42.721Z,5.43
2023-04-20T12:26:09.348Z,5.30
2023-04-20T12:28:35.904Z,7.10
2023-04-20T12:31:02.543Z,5.78
2023-04-20T12:33:29.724Z,5.68
2023-04-20T12:35:56.394Z,5.90
2023-04-20T12:38:23.033Z,5.55
2023-04-20T12:40:49.619Z,5.40
2023-04-20T12:43:16.377Z,6.00
2023-04-20T12:45:42.921Z,4.97
2023-04-20T12:48:09.478Z,4.32
2023-04-20T12:50:36.022Z,5.80
2023-04-20T12:53:02.666Z,5.05
2023-04-20T12:55:29.428Z,6.20
2023-04-20T12:57:56.053Z,6.00
2023-04-20T13:00:22.704Z,6.13
2023-04-20T13:02:49.936Z,5.40
2023-04-20T13:05:17.235Z,4.57
2023-04-20T13:07:43.927Z,5.05
2023-04-20T13:10:10.765Z,5.20
2023-04-20T13:12:37.359Z,5.25
2023-04-20T13:15:04.289Z,5.05
2023-04-20T13:17:31.488Z,5.43
2023-04-20T13:19:58.157Z,6.30
2023-04-20T13:22:24.767Z,6.13
2023-04-20T13:24:51.434Z,6.13
2023-04-20T13:27:18.091Z,5.35
2023-04-20T13:29:44.781Z,5.53
2023-04-20T13:32:11.744Z,5.22
2023-04-20T13:34:38.531Z,5.57
2023-04-20T13:37:05.216Z,4.85
2023-04-20T13:39:32.008Z,5.88
2023-04-20T13:41:58.676Z,5.00
2023-04-20T13:44:25.329Z,5.38
2023-04-20T13:46:51.967Z,5.88
2023-04-20T13:49:22.374Z,6.53
2023-04-20T13:51:49.663Z,4.43
2023-04-20T13:54:16.387Z,3.33
2023-04-20T13:56:43.191Z,4.70
2023-04-20T13:59:09.891Z,6.50
2023-04-20T14:01:36.901Z,5.03
2023-04-20T14:04:03.909Z,3.95
2023-04-20T14:06:31.232Z,4.65
2023-04-20T14:08:57.897Z,5.15
2023-04-20T14:11:24.468Z,5.45
2023-04-20T14:13:51.938Z,4.38
2023-04-20T14:16:18.634Z,4.57
2023-04-20T14:18:45.254Z,4.82
2023-04-20T14:21:11.846Z,4.22
2023-04-20T14:23:38.406Z,5.20
2023-04-20T14:26:05.066Z,6.13
2023-04-20T14:28:33.216Z,5.35
2023-04-20T14:31:01.430Z,3.38
2023-04-20T14:33:28.335Z,4.95
2023-04-20T14:35:55.082Z,4.28
2023-04-20T14:38:21.845Z,4.00
2023-04-20T14:40:48.778Z,4.93
2023-04-20T14:43:15.447Z,3.85
2023-04-20T14:45:42.101Z,4.28
2023-04-20T14:48:08.885Z,4.15
2023-04-20T14:50:35.643Z,3.67
2023-04-20T14:53:02.234Z,3.90
2023-04-20T14:55:28.817Z,4.43
2023-04-20T14:57:56.051Z,3.53
2023-04-20T15:00:27.693Z,3.72
2023-04-20T15:02:56.775Z,4.25
2023-04-20T15:05:24.820Z,4.22
2023-04-20T15:07:51.524Z,4.13
2023-04-20T15:10:19.349Z,5.10
2023-04-20T15:12:47.117Z,4.40
2023-04-20T15:15:13.893Z,4.03
2023-04-20T15:17:40.578Z,3.63
2023-04-20T15:20:07.883Z,5.28
2023-04-20T15:22:34.472Z,4.18
2023-04-20T15:25:01.094Z,6.78
2023-04-20T15:27:27.686Z,3.58
2023-04-20T15:29:54.614Z,4.75
2023-04-20T15:32:21.585Z,3.65
2023-04-20T15:34:48.345Z,5.13
2023-04-20T15:37:15.021Z,4.30
2023-04-20T15:39:41.688Z,4.32
2023-04-20T15:42:08.380Z,4.00
2023-04-20T15:44:35.002Z,3.78
2023-04-20T15:47:02.330Z,3.30
2023-04-20T15:49:28.941Z,5.93
2023-04-20T15:51:55.579Z,3.10
2023-04-20T15:54:23.692Z,4.80
2023-04-20T15:56:51.184Z,3.95
2023-04-20T15:59:18.489Z,4.63
2023-04-20T16:01:45.265Z,5.88
2023-04-20T16:04:12.086Z,5.28
2023-04-20T16:06:39.893Z,3.53
2023-04-20T16:09:07.025Z,3.45
2023-04-20T16:11:34.929Z,3.95
2023-04-20T16:14:01.620Z,4.38
2023-04-20T16:16:28.374Z,5.82
2023-04-20T16:18:55.338Z,4.30
2023-04-20T16:21:23.328Z,4.53
2023-04-20T16:23:56.677Z,3.83
2023-04-20T16:26:25.607Z,4.20
2023-04-20T16:28:53.050Z,4.40
2023-04-20T16:31:20.170Z,3.92
2023-04-20T16:33:47.012Z,4.78
2023-04-20T16:36:16.220Z,3.80
2023-04-20T16:38:43.408Z,3.63
2023-04-20T16:41:10.284Z,3.33
2023-04-20T16:43:37.185Z,3.92
2023-04-20T16:46:03.841Z,3.53
2023-04-20T16:48:31.390Z,2.83
2023-04-20T16:50:58.198Z,2.97
2023-04-20T16:53:25.292Z,3.70
2023-04-20T16:55:52.032Z,3.92
2023-04-20T16:58:18.770Z,3.80
2023-04-20T17:00:45.520Z,2.47
2023-04-20T17:03:13.572Z,3.75
2023-04-20T17:05:41.858Z,4.10
2023-04-20T17:08:09.188Z,3.72
2023-04-20T17:10:37.309Z,3.72
2023-04-20T17:13:04.230Z,3.95
2023-04-20T17:15:31.373Z,3.83
2023-04-20T17:17:58.897Z,3.35
2023-04-20T17:20:25.686Z,4.05
2023-04-20T17:22:52.297Z,3.22
2023-04-20T17:25:19.349Z,3.92
2023-04-20T17:27:46.114Z,4.20
2023-04-20T17:30:13.324Z,4.82
2023-04-20T17:32:40.281Z,6.18
2023-04-20T17:35:07.070Z,5.38
2023-04-20T17:37:35.373Z,5.88
2023-04-20T17:40:02.826Z,5.90
2023-04-20T17:42:29.470Z,6.90
2023-04-20T17:44:56.220Z,36.28
2023-04-20T17:47:22.975Z,41.17
2023-04-20T17:49:49.660Z,15.73
2023-04-20T17:52:19.438Z,17.42
2023-04-20T17:54:46.113Z,12.98
2023-04-20T17:57:14.112Z,11.18
2023-04-20T17:59:42.335Z,14.05
2023-04-20T18:02:09.313Z,14.63
2023-04-20T18:04:36.577Z,12.18
2023-04-20T18:07:03.783Z,12.00
2023-04-20T18:09:30.623Z,15.00
2023-04-20T18:11:57.329Z,12.07
2023-04-20T18:14:24.033Z,13.35
2023-04-20T18:16:52.484Z,10.55
2023-04-20T18:19:19.489Z,12.18
2023-04-20T18:21:46.466Z,13.55
2023-04-20T18:24:13.130Z,11.70
2023-04-20T18:26:39.928Z,12.32
2023-04-20T18:29:06.912Z,12.88
2023-04-20T18:31:33.567Z,10.40
2023-04-20T18:34:00.488Z,13.35
2023-04-20T18:36:27.176Z,10.27
2023-04-20T18:38:54.511Z,12.65
2023-04-20T18:41:23.290Z,12.10
2023-04-20T18:43:53.035Z,12.90
2023-04-20T18:46:19.747Z,11.75
2023-04-20T18:48:46.536Z,12.70
2023-04-20T18:51:13.350Z,9.30
2023-04-20T18:53:39.953Z,11.02
2023-04-20T18:56:08.021Z,8.15
2023-04-20T18:58:35.878Z,10.60
2023-04-20T19:01:03.667Z,11.65
2023-04-20T19:03:31.416Z,9.10
2023-04-20T19:05:58.267Z,9.55
2023-04-20T19:08:24.933Z,9.95
2023-04-20T19:10:53.942Z,7.82
2023-04-20T19:13:20.718Z,6.88
2023-04-20T19:15:47.319Z,7.78
2023-04-20T19:18:16.009Z,11.80
2023-04-20T19:20:42.967Z,9.45
2023-04-20T19:23:09.665Z,9.80
2023-04-20T19:25:38.048Z,7.43
2023-04-20T19:28:05.043Z,8.73
2023-04-20T19:30:31.851Z,8.48
2023-04-20T19:33:02.327Z,8.68
2023-04-20T19:35:29.076Z,8.70
2023-04-20T19:37:55.904Z,9.02
2023-04-20T19:40:24.647Z,10.13
2023-04-20T19:42:51.304Z,7.90
2023-04-20T19:45:18.091Z,5.85
2023-04-20T19:47:45.045Z,9.57
2023-04-20T19:50:12.352Z,8.20
2023-04-20T19:52:39.383Z,9.65
2023-04-20T19:55:06.720Z,8.35
2023-04-20T19:57:33.431Z,8.25
2023-04-20T20:00:00.229Z,9.82
2023-04-20T20:02:27.027Z,7.88
2023-04-20T20:04:54.901Z,9.38
2023-04-20T20:07:21.583Z,9.43
2023-04-20T20:09:48.275Z,7.03
2023-04-20T20:12:14.897Z,7.53
2023-04-20T20:14:41.634Z,7.68
2023-04-20T20:17:11.114Z,8.25
2023-04-20T20:19:37.806Z,6.10
2023-04-20T20:22:06.051Z,7.30
2023-04-20T20:24:32.863Z,8.02
2023-04-20T20:26:59.479Z,6.68
2023-04-20T20:29:26.169Z,7.75
2023-04-20T20:31:52.923Z,8.77
2023-04-20T20:34:19.599Z,7.25
2023-04-20T20:36:46.348Z,7.78
2023-04-20T20:39:15.572Z,6.55
2023-04-20T20:41:43.037Z,6.78
2023-04-20T20:44:12.505Z,9.80
2023-04-20T20:46:40.260Z,5.85
2023-04-20T20:49:07.378Z,7.07
2023-04-20T20:51:33.996Z,6.13
2023-04-20T20:54:00.839Z,8.60
2023-04-20T20:56:27.538Z,6.35
2023-04-20T20:58:54.302Z,6.75
2023-04-20T21:01:21.620Z,6.80
2023-04-20T21:03:50.025Z,10.32
2023-04-20T21:06:17.092Z,6.97
2023-04-20T21:08:43.767Z,7.32
2023-04-20T21:11:10.465Z,6.47
2023-04-20T21:13:37.068Z,8.02
2023-04-20T21:16:03.708Z,6.22
2023-04-20T21:18:30.832Z,7.05
2023-04-20T21:20:57.381Z,6.22
2023-04-20T21:23:23.983Z,7.40
2023-04-20T21:25:50.735Z,6.25
2023-04-20T21:28:17.313Z,5.72
2023-04-20T21:30:43.845Z,5.40
2023-04-20T21:33:12.932Z,6.60
2023-04-20T21:35:39.511Z,6.97
2023-04-20T21:38:06.237Z,5.60
2023-04-20T21:40:34.219Z,6.10
2023-04-20T21:43:00.936Z,5.75
2023-04-20T21:45:27.553Z,5.10
2023-04-20T21:47:55.411Z,6.60
2023-04-20T21:50:27.032Z,6.72
2023-04-20T21:52:54.734Z,7.82
2023-04-20T21:55:21.443Z,8.02
2023-04-20T21:57:48.205Z,6.93
2023-04-20T22:00:15.528Z,5.70
2023-04-20T22:02:44.248Z,6.80
2023-04-20T22:05:11.465Z,6.57
2023-04-20T22:07:38.805Z,5.30
2023-04-20T22:10:06.856Z,5.40
2023-04-20T22:12:40.293Z,7.18
2023-04-20T22:15:11.261Z,6.65
2023-04-20T22:17:38.190Z,6.50
2023-04-20T22:20:07.411Z,6.10
2023-04-20T22:22:34.695Z,6.20
2023-04-20T22:25:01.752Z,5.95
2023-04-20T22:27:28.881Z,5.97
2023-04-20T22:29:55.516Z,5.75
2023-04-20T22:32:22.146Z,6.93
2023-04-20T22:34:48.704Z,5.50
2023-04-20T22:37:15.267Z,6.32
2023-04-20T22:39:41.770Z,6.35
2023-04-20T22:42:08.358Z,6.22
2023-04-20T22:44:37.599Z,6.00
2023-04-20T22:47:04.245Z,5.90
2023-04-20T22:49:30.832Z,5.55
2023-04-20T22:51:57.500Z,6.75
2023-04-20T22:54:26.930Z,6.25
2023-04-20T22:56:53.560Z,5.68
2023-04-20T22:59:20.427Z,6.38
2023-04-20T23:01:47.138Z,6.00
2023-04-20T23:04:13.897Z,6.65
2023-04-20T23:06:43.779Z,5.40
2023-04-20T23:09:12.425Z,5.93
2023-04-20T23:11:39.652Z,5.70
2023-04-20T23:14:07.021Z,4.90
2023-04-20T23:16:33.758Z,5.57
2023-04-20T23:19:00.317Z,5.68
2023-04-20T23:21:28.552Z,6.35
2023-04-20T23:23:58.267Z,6.43
2023-04-20T23:26:24.959Z,5.32
2023-04-20T23:28:52.130Z,5.45
2023-04-20T23:31:21.643Z,5.70
2023-04-20T23:33:48.317Z,6.22
2023-04-20T23:36:14.919Z,5.97
2023-04-20T23:38:41.543Z,5.45
2023-04-20T23:41:10.081Z,4.35
2023-04-20T23:43:38.376Z,4.88
2023-04-20T23:46:05.753Z,4.60
2023-04-20T23:48:32.421Z,5.03
2023-04-20T23:50:59.052Z,4.38
2023-04-20T23:53:25.726Z,5.10
2023-04-20T23:55:55.316Z,4.88
2023-04-20T23:58:25.510Z,5.38
